sensor_id;sensor_type;location;lat;lon;timestamp;P1;durP1;ratioP1;P2;durP2;ratioP2
64188;SDS011;50493;50.970;10.082;2023-01-25T00:01:15;25.70;;;10.85;;
64188;SDS011;50493;50.970;10.082;2023-01-25T00:03:40;20.88;;;8.55;;
64188;SDS011;50493;50.970;10.082;2023-01-25T00:06:06;18.85;;;8.57;;
64188;SDS011;50493;50.970;10.082;2023-01-25T00:08:32;26.33;;;10.60;;
64188;SDS011;50493;50.970;10.082;2023-01-25T00:10:58;26.20;;;11.98;;
64188;SDS011;50493;50.970;10.082;2023-01-25T00:13:23;25.08;;;9.55;;
64188;SDS011;50493;50.970;10.082;2023-01-25T00:15:49;28.15;;;11.80;;
64188;SDS011;50493;50.970;10.082;2023-01-25T00:18:14;25.38;;;10.55;;
64188;SDS011;50493;50.970;10.082;2023-01-25T00:20:39;26.42;;;12.88;;
64188;SDS011;50493;50.970;10.082;2023-01-25T00:23:05;24.55;;;10.90;;
64188;SDS011;50493;50.970;10.082;2023-01-25T00:25:31;24.38;;;9.63;;
64188;SDS011;50493;50.970;10.082;2023-01-25T00:27:57;25.45;;;11.23;;
64188;SDS011;50493;50.970;10.082;2023-01-25T00:30:22;25.75;;;10.52;;
64188;SDS011;50493;50.970;10.082;2023-01-25T00:32:49;29.58;;;12.80;;
64188;SDS011;50493;50.970;10.082;2023-01-25T00:35:18;23.00;;;8.45;;
64188;SDS011;50493;50.970;10.082;2023-01-25T00:37:45;23.40;;;9.82;;
64188;SDS011;50493;50.970;10.082;2023-01-25T00:40:13;28.42;;;11.80;;
64188;SDS011;50493;50.970;10.082;2023-01-25T00:42:41;29.40;;;12.40;;
64188;SDS011;50493;50.970;10.082;2023-01-25T00:45:07;28.85;;;12.02;;
64188;SDS011;50493;50.970;10.082;2023-01-25T00:47:34;24.92;;;10.93;;
64188;SDS011;50493;50.970;10.082;2023-01-25T00:49:59;19.85;;;8.82;;
64188;SDS011;50493;50.970;10.082;2023-01-25T00:52:25;30.65;;;13.60;;
64188;SDS011;50493;50.970;10.082;2023-01-25T00:54:51;24.63;;;10.02;;
64188;SDS011;50493;50.970;10.082;2023-01-25T00:57:16;27.58;;;11.20;;
64188;SDS011;50493;50.970;10.082;2023-01-25T00:59:43;33.58;;;14.85;;
64188;SDS011;50493;50.970;10.082;2023-01-25T01:02:10;28.08;;;11.45;;
64188;SDS011;50493;50.970;10.082;2023-01-25T01:04:35;26.30;;;10.77;;
64188;SDS011;50493;50.970;10.082;2023-01-25T01:07:01;23.77;;;10.70;;
64188;SDS011;50493;50.970;10.082;2023-01-25T01:09:26;28.70;;;12.48;;
64188;SDS011;50493;50.970;10.082;2023-01-25T01:11:52;25.98;;;10.77;;
64188;SDS011;50493;50.970;10.082;2023-01-25T01:14:18;23.85;;;9.77;;
64188;SDS011;50493;50.970;10.082;2023-01-25T01:16:44;21.58;;;9.07;;
64188;SDS011;50493;50.970;10.082;2023-01-25T01:19:10;22.33;;;8.57;;
64188;SDS011;50493;50.970;10.082;2023-01-25T01:21:36;19.55;;;7.88;;
64188;SDS011;50493;50.970;10.082;2023-01-25T01:24:01;29.65;;;11.38;;
64188;SDS011;50493;50.970;10.082;2023-01-25T01:26:27;20.48;;;8.35;;
64188;SDS011;50493;50.970;10.082;2023-01-25T01:28:52;18.35;;;7.75;;
64188;SDS011;50493;50.970;10.082;2023-01-25T01:31:18;19.20;;;7.85;;
64188;SDS011;50493;50.970;10.082;2023-01-25T01:33:48;19.20;;;8.13;;
64188;SDS011;50493;50.970;10.082;2023-01-25T01:36:15;19.50;;;8.15;;
64188;SDS011;50493;50.970;10.082;2023-01-25T01:38:42;21.02;;;8.73;;
64188;SDS011;50493;50.970;10.082;2023-01-25T01:41:08;19.27;;;8.00;;
64188;SDS011;50493;50.970;10.082;2023-01-25T01:43:34;21.45;;;9.38;;
64188;SDS011;50493;50.970;10.082;2023-01-25T01:46:01;21.23;;;9.23;;
64188;SDS011;50493;50.970;10.082;2023-01-25T01:48:30;20.33;;;7.95;;
64188;SDS011;50493;50.970;10.082;2023-01-25T01:51:02;21.50;;;8.30;;
64188;SDS011;50493;50.970;10.082;2023-01-25T01:53:33;23.25;;;9.02;;
64188;SDS011;50493;50.970;10.082;2023-01-25T01:56:01;22.55;;;9.27;;
64188;SDS011;50493;50.970;10.082;2023-01-25T01:58:31;21.70;;;8.05;;
64188;SDS011;50493;50.970;10.082;2023-01-25T02:00:56;18.13;;;8.15;;
64188;SDS011;50493;50.970;10.082;2023-01-25T02:03:22;22.95;;;9.40;;
64188;SDS011;50493;50.970;10.082;2023-01-25T02:05:50;20.42;;;7.30;;
64188;SDS011;50493;50.970;10.082;2023-01-25T02:08:21;23.80;;;8.98;;
64188;SDS011;50493;50.970;10.082;2023-01-25T02:10:47;23.42;;;11.07;;
64188;SDS011;50493;50.970;10.082;2023-01-25T02:13:14;24.65;;;10.23;;
64188;SDS011;50493;50.970;10.082;2023-01-25T02:15:41;24.23;;;10.20;;
64188;SDS011;50493;50.970;10.082;2023-01-25T02:18:08;23.48;;;8.88;;
64188;SDS011;50493;50.970;10.082;2023-01-25T02:20:36;19.17;;;7.45;;
64188;SDS011;50493;50.970;10.082;2023-01-25T02:23:06;21.65;;;9.05;;
64188;SDS011;50493;50.970;10.082;2023-01-25T02:25:41;25.00;;;11.18;;
64188;SDS011;50493;50.970;10.082;2023-01-25T02:28:08;22.23;;;7.55;;
64188;SDS011;50493;50.970;10.082;2023-01-25T02:30:38;25.35;;;9.25;;
64188;SDS011;50493;50.970;10.082;2023-01-25T02:33:05;23.17;;;9.30;;
64188;SDS011;50493;50.970;10.082;2023-01-25T02:35:36;24.98;;;8.93;;
64188;SDS011;50493;50.970;10.082;2023-01-25T02:38:04;19.63;;;6.95;;
64188;SDS011;50493;50.970;10.082;2023-01-25T02:40:31;21.60;;;8.30;;
64188;SDS011;50493;50.970;10.082;2023-01-25T02:43:07;20.15;;;8.35;;
64188;SDS011;50493;50.970;10.082;2023-01-25T02:45:32;20.27;;;7.35;;
64188;SDS011;50493;50.970;10.082;2023-01-25T02:47:58;23.15;;;8.88;;
64188;SDS011;50493;50.970;10.082;2023-01-25T02:50:23;17.65;;;6.95;;
64188;SDS011;50493;50.970;10.082;2023-01-25T02:52:48;19.58;;;8.45;;
64188;SDS011;50493;50.970;10.082;2023-01-25T02:55:14;22.23;;;8.40;;
64188;SDS011;50493;50.970;10.082;2023-01-25T02:57:39;20.05;;;8.48;;
64188;SDS011;50493;50.970;10.082;2023-01-25T03:00:07;18.33;;;6.80;;
64188;SDS011;50493;50.970;10.082;2023-01-25T03:02:33;20.88;;;8.05;;
64188;SDS011;50493;50.970;10.082;2023-01-25T03:04:58;19.30;;;7.30;;
64188;SDS011;50493;50.970;10.082;2023-01-25T03:07:23;20.88;;;7.50;;
64188;SDS011;50493;50.970;10.082;2023-01-25T03:09:49;18.92;;;7.47;;
64188;SDS011;50493;50.970;10.082;2023-01-25T03:12:14;18.05;;;7.03;;
64188;SDS011;50493;50.970;10.082;2023-01-25T03:14:39;20.17;;;7.72;;
64188;SDS011;50493;50.970;10.082;2023-01-25T03:17:06;18.70;;;7.32;;
64188;SDS011;50493;50.970;10.082;2023-01-25T03:19:31;20.15;;;8.35;;
64188;SDS011;50493;50.970;10.082;2023-01-25T03:21:57;20.80;;;8.07;;
64188;SDS011;50493;50.970;10.082;2023-01-25T03:24:23;16.17;;;6.45;;
64188;SDS011;50493;50.970;10.082;2023-01-25T03:26:48;18.83;;;7.68;;
64188;SDS011;50493;50.970;10.082;2023-01-25T03:29:32;21.45;;;8.35;;
64188;SDS011;50493;50.970;10.082;2023-01-25T03:31:57;23.50;;;8.57;;
64188;SDS011;50493;50.970;10.082;2023-01-25T03:34:24;16.23;;;6.75;;
64188;SDS011;50493;50.970;10.082;2023-01-25T03:36:49;19.02;;;8.02;;
64188;SDS011;50493;50.970;10.082;2023-01-25T03:39:14;17.70;;;7.30;;
64188;SDS011;50493;50.970;10.082;2023-01-25T03:41:40;17.30;;;7.00;;
64188;SDS011;50493;50.970;10.082;2023-01-25T03:44:05;17.65;;;7.13;;
64188;SDS011;50493;50.970;10.082;2023-01-25T03:46:30;16.65;;;7.00;;
64188;SDS011;50493;50.970;10.082;2023-01-25T03:48:56;18.23;;;7.40;;
64188;SDS011;50493;50.970;10.082;2023-01-25T03:51:22;19.95;;;7.78;;
64188;SDS011;50493;50.970;10.082;2023-01-25T03:53:48;19.90;;;8.27;;
64188;SDS011;50493;50.970;10.082;2023-01-25T03:56:13;16.77;;;6.40;;
64188;SDS011;50493;50.970;10.082;2023-01-25T04:01:09;21.02;;;7.50;;
64188;SDS011;50493;50.970;10.082;2023-01-25T04:03:35;15.98;;;6.75;;
64188;SDS011;50493;50.970;10.082;2023-01-25T04:06:00;21.13;;;6.90;;
64188;SDS011;50493;50.970;10.082;2023-01-25T04:08:28;20.15;;;7.32;;
64188;SDS011;50493;50.970;10.082;2023-01-25T04:10:54;21.33;;;7.93;;
64188;SDS011;50493;50.970;10.082;2023-01-25T04:13:21;18.23;;;7.28;;
64188;SDS011;50493;50.970;10.082;2023-01-25T04:15:47;17.73;;;7.82;;
64188;SDS011;50493;50.970;10.082;2023-01-25T04:18:13;20.10;;;7.75;;
64188;SDS011;50493;50.970;10.082;2023-01-25T04:20:38;16.95;;;6.97;;
64188;SDS011;50493;50.970;10.082;2023-01-25T04:23:04;19.40;;;6.88;;
64188;SDS011;50493;50.970;10.082;2023-01-25T04:25:32;19.80;;;7.97;;
64188;SDS011;50493;50.970;10.082;2023-01-25T04:27:57;19.05;;;7.35;;
64188;SDS011;50493;50.970;10.082;2023-01-25T04:30:23;18.30;;;7.63;;
64188;SDS011;50493;50.970;10.082;2023-01-25T04:32:48;15.60;;;5.55;;
64188;SDS011;50493;50.970;10.082;2023-01-25T04:35:14;15.57;;;6.10;;
64188;SDS011;50493;50.970;10.082;2023-01-25T04:37:39;16.80;;;6.80;;
64188;SDS011;50493;50.970;10.082;2023-01-25T04:40:05;18.38;;;6.97;;
64188;SDS011;50493;50.970;10.082;2023-01-25T04:42:32;17.50;;;6.63;;
64188;SDS011;50493;50.970;10.082;2023-01-25T04:44:58;18.33;;;6.57;;
64188;SDS011;50493;50.970;10.082;2023-01-25T04:47:23;17.23;;;6.28;;
64188;SDS011;50493;50.970;10.082;2023-01-25T04:49:49;14.48;;;6.15;;
64188;SDS011;50493;50.970;10.082;2023-01-25T04:52:14;13.82;;;6.03;;
64188;SDS011;50493;50.970;10.082;2023-01-25T04:54:39;19.50;;;7.38;;
64188;SDS011;50493;50.970;10.082;2023-01-25T04:57:05;18.27;;;7.28;;
64188;SDS011;50493;50.970;10.082;2023-01-25T04:59:32;20.42;;;7.53;;
64188;SDS011;50493;50.970;10.082;2023-01-25T05:01:57;21.98;;;9.38;;
64188;SDS011;50493;50.970;10.082;2023-01-25T05:04:22;23.27;;;8.27;;
64188;SDS011;50493;50.970;10.082;2023-01-25T05:06:48;20.67;;;8.13;;
64188;SDS011;50493;50.970;10.082;2023-01-25T05:09:13;22.05;;;9.32;;
64188;SDS011;50493;50.970;10.082;2023-01-25T05:11:39;18.20;;;7.30;;
64188;SDS011;50493;50.970;10.082;2023-01-25T05:14:04;18.38;;;7.20;;
64188;SDS011;50493;50.970;10.082;2023-01-25T05:16:31;13.02;;;5.82;;
64188;SDS011;50493;50.970;10.082;2023-01-25T05:18:56;16.83;;;6.50;;
64188;SDS011;50493;50.970;10.082;2023-01-25T05:21:21;14.70;;;6.22;;
64188;SDS011;50493;50.970;10.082;2023-01-25T05:24:22;27.02;;;8.85;;
64188;SDS011;50493;50.970;10.082;2023-01-25T05:26:48;15.98;;;6.30;;
64188;SDS011;50493;50.970;10.082;2023-01-25T05:29:27;16.45;;;6.20;;
64188;SDS011;50493;50.970;10.082;2023-01-25T05:31:55;17.50;;;6.75;;
64188;SDS011;50493;50.970;10.082;2023-01-25T05:34:21;18.65;;;7.18;;
64188;SDS011;50493;50.970;10.082;2023-01-25T05:36:47;18.10;;;6.85;;
64188;SDS011;50493;50.970;10.082;2023-01-25T05:39:12;17.20;;;7.10;;
64188;SDS011;50493;50.970;10.082;2023-01-25T05:41:38;18.20;;;6.70;;
64188;SDS011;50493;50.970;10.082;2023-01-25T05:44:03;16.70;;;6.78;;
64188;SDS011;50493;50.970;10.082;2023-01-25T05:46:29;15.93;;;6.32;;
64188;SDS011;50493;50.970;10.082;2023-01-25T05:48:55;15.88;;;6.50;;
64188;SDS011;50493;50.970;10.082;2023-01-25T05:51:21;22.92;;;9.35;;
64188;SDS011;50493;50.970;10.082;2023-01-25T05:53:46;20.00;;;7.50;;
64188;SDS011;50493;50.970;10.082;2023-01-25T05:56:12;21.73;;;9.13;;
64188;SDS011;50493;50.970;10.082;2023-01-25T05:58:37;17.33;;;7.32;;
64188;SDS011;50493;50.970;10.082;2023-01-25T06:01:04;17.98;;;8.00;;
64188;SDS011;50493;50.970;10.082;2023-01-25T06:03:31;18.00;;;6.85;;
64188;SDS011;50493;50.970;10.082;2023-01-25T06:05:58;17.83;;;6.75;;
64188;SDS011;50493;50.970;10.082;2023-01-25T06:08:26;15.68;;;5.75;;
64188;SDS011;50493;50.970;10.082;2023-01-25T06:10:52;16.85;;;6.75;;
64188;SDS011;50493;50.970;10.082;2023-01-25T06:13:17;16.65;;;6.40;;
64188;SDS011;50493;50.970;10.082;2023-01-25T06:15:48;24.95;;;9.65;;
64188;SDS011;50493;50.970;10.082;2023-01-25T06:18:16;19.92;;;8.10;;
64188;SDS011;50493;50.970;10.082;2023-01-25T06:20:41;19.87;;;7.53;;
64188;SDS011;50493;50.970;10.082;2023-01-25T06:23:08;20.50;;;7.78;;
64188;SDS011;50493;50.970;10.082;2023-01-25T06:25:33;18.33;;;7.15;;
64188;SDS011;50493;50.970;10.082;2023-01-25T06:27:58;17.67;;;7.20;;
64188;SDS011;50493;50.970;10.082;2023-01-25T06:30:24;19.58;;;7.20;;
64188;SDS011;50493;50.970;10.082;2023-01-25T06:32:49;16.38;;;7.15;;
64188;SDS011;50493;50.970;10.082;2023-01-25T06:35:14;19.17;;;7.40;;
64188;SDS011;50493;50.970;10.082;2023-01-25T06:37:40;20.60;;;7.47;;
64188;SDS011;50493;50.970;10.082;2023-01-25T06:40:07;20.45;;;7.75;;
64188;SDS011;50493;50.970;10.082;2023-01-25T06:42:33;18.25;;;7.97;;
64188;SDS011;50493;50.970;10.082;2023-01-25T06:44:58;16.90;;;6.57;;
64188;SDS011;50493;50.970;10.082;2023-01-25T06:47:24;18.20;;;7.20;;
64188;SDS011;50493;50.970;10.082;2023-01-25T06:49:49;19.27;;;7.32;;
64188;SDS011;50493;50.970;10.082;2023-01-25T06:52:14;19.23;;;7.18;;
64188;SDS011;50493;50.970;10.082;2023-01-25T06:54:40;17.92;;;6.65;;
64188;SDS011;50493;50.970;10.082;2023-01-25T06:57:06;16.80;;;7.03;;
64188;SDS011;50493;50.970;10.082;2023-01-25T06:59:34;19.20;;;7.15;;
64188;SDS011;50493;50.970;10.082;2023-01-25T07:01:59;17.25;;;7.20;;
64188;SDS011;50493;50.970;10.082;2023-01-25T07:04:24;19.25;;;7.45;;
64188;SDS011;50493;50.970;10.082;2023-01-25T07:06:50;17.08;;;7.30;;
64188;SDS011;50493;50.970;10.082;2023-01-25T07:09:15;17.35;;;7.10;;
64188;SDS011;50493;50.970;10.082;2023-01-25T07:11:40;16.60;;;6.43;;
64188;SDS011;50493;50.970;10.082;2023-01-25T07:14:07;17.55;;;7.07;;
64188;SDS011;50493;50.970;10.082;2023-01-25T07:16:33;14.90;;;6.13;;
64188;SDS011;50493;50.970;10.082;2023-01-25T07:19:01;15.55;;;6.32;;
64188;SDS011;50493;50.970;10.082;2023-01-25T07:21:26;18.65;;;7.03;;
64188;SDS011;50493;50.970;10.082;2023-01-25T07:23:51;16.33;;;6.35;;
64188;SDS011;50493;50.970;10.082;2023-01-25T07:26:17;15.32;;;6.05;;
64188;SDS011;50493;50.970;10.082;2023-01-25T07:28:44;15.60;;;6.03;;
64188;SDS011;50493;50.970;10.082;2023-01-25T07:31:11;18.92;;;6.80;;
64188;SDS011;50493;50.970;10.082;2023-01-25T07:33:37;16.50;;;6.22;;
64188;SDS011;50493;50.970;10.082;2023-01-25T07:36:03;15.98;;;6.07;;
64188;SDS011;50493;50.970;10.082;2023-01-25T07:38:30;16.60;;;6.68;;
64188;SDS011;50493;50.970;10.082;2023-01-25T07:40:56;17.33;;;6.45;;
64188;SDS011;50493;50.970;10.082;2023-01-25T07:43:21;18.05;;;6.72;;
64188;SDS011;50493;50.970;10.082;2023-01-25T07:45:46;16.73;;;6.13;;
64188;SDS011;50493;50.970;10.082;2023-01-25T07:48:17;16.60;;;6.88;;
64188;SDS011;50493;50.970;10.082;2023-01-25T07:50:43;17.25;;;6.38;;
64188;SDS011;50493;50.970;10.082;2023-01-25T07:53:32;18.95;;;7.70;;
64188;SDS011;50493;50.970;10.082;2023-01-25T07:55:57;17.42;;;6.05;;
64188;SDS011;50493;50.970;10.082;2023-01-25T07:58:23;14.52;;;5.43;;
64188;SDS011;50493;50.970;10.082;2023-01-25T08:00:48;16.40;;;6.30;;
64188;SDS011;50493;50.970;10.082;2023-01-25T08:03:13;16.15;;;6.30;;
64188;SDS011;50493;50.970;10.082;2023-01-25T08:05:44;17.05;;;6.53;;
64188;SDS011;50493;50.970;10.082;2023-01-25T08:08:09;19.95;;;8.10;;
64188;SDS011;50493;50.970;10.082;2023-01-25T08:10:34;17.17;;;7.53;;
64188;SDS011;50493;50.970;10.082;2023-01-25T08:13:00;21.98;;;8.63;;
64188;SDS011;50493;50.970;10.082;2023-01-25T08:15:25;16.13;;;6.25;;
64188;SDS011;50493;50.970;10.082;2023-01-25T08:17:50;16.17;;;6.38;;
64188;SDS011;50493;50.970;10.082;2023-01-25T08:20:16;15.63;;;6.50;;
64188;SDS011;50493;50.970;10.082;2023-01-25T08:22:43;16.00;;;6.72;;
64188;SDS011;50493;50.970;10.082;2023-01-25T08:25:08;15.55;;;5.57;;
64188;SDS011;50493;50.970;10.082;2023-01-25T08:27:34;14.70;;;5.70;;
64188;SDS011;50493;50.970;10.082;2023-01-25T08:29:59;14.23;;;6.07;;
64188;SDS011;50493;50.970;10.082;2023-01-25T08:32:25;11.57;;;5.32;;
64188;SDS011;50493;50.970;10.082;2023-01-25T08:34:50;16.75;;;5.90;;
64188;SDS011;50493;50.970;10.082;2023-01-25T08:37:16;12.82;;;5.75;;
64188;SDS011;50493;50.970;10.082;2023-01-25T08:39:42;16.08;;;6.60;;
64188;SDS011;50493;50.970;10.082;2023-01-25T08:42:08;14.60;;;5.60;;
64188;SDS011;50493;50.970;10.082;2023-01-25T08:44:33;15.30;;;5.60;;
64188;SDS011;50493;50.970;10.082;2023-01-25T08:46:58;14.60;;;5.75;;
64188;SDS011;50493;50.970;10.082;2023-01-25T08:49:24;14.43;;;5.85;;
64188;SDS011;50493;50.970;10.082;2023-01-25T08:51:51;14.25;;;5.75;;
64188;SDS011;50493;50.970;10.082;2023-01-25T08:54:16;14.40;;;5.38;;
64188;SDS011;50493;50.970;10.082;2023-01-25T08:56:43;13.98;;;5.75;;
64188;SDS011;50493;50.970;10.082;2023-01-25T08:59:09;15.23;;;5.63;;
64188;SDS011;50493;50.970;10.082;2023-01-25T09:01:35;17.10;;;5.60;;
64188;SDS011;50493;50.970;10.082;2023-01-25T09:04:01;13.85;;;5.82;;
64188;SDS011;50493;50.970;10.082;2023-01-25T09:06:26;14.95;;;5.72;;
64188;SDS011;50493;50.970;10.082;2023-01-25T09:08:51;14.00;;;5.55;;
64188;SDS011;50493;50.970;10.082;2023-01-25T09:11:17;12.32;;;4.72;;
64188;SDS011;50493;50.970;10.082;2023-01-25T09:13:45;16.15;;;5.97;;
64188;SDS011;50493;50.970;10.082;2023-01-25T09:16:13;13.38;;;5.28;;
64188;SDS011;50493;50.970;10.082;2023-01-25T09:18:40;14.82;;;5.70;;
64188;SDS011;50493;50.970;10.082;2023-01-25T09:21:07;13.25;;;5.13;;
64188;SDS011;50493;50.970;10.082;2023-01-25T09:23:34;12.93;;;5.53;;
64188;SDS011;50493;50.970;10.082;2023-01-25T09:26:00;13.82;;;5.25;;
64188;SDS011;50493;50.970;10.082;2023-01-25T09:28:26;14.00;;;5.45;;
64188;SDS011;50493;50.970;10.082;2023-01-25T09:30:55;11.40;;;4.45;;
64188;SDS011;50493;50.970;10.082;2023-01-25T09:33:23;13.05;;;5.13;;
64188;SDS011;50493;50.970;10.082;2023-01-25T09:35:49;11.02;;;4.18;;
64188;SDS011;50493;50.970;10.082;2023-01-25T09:38:14;12.57;;;5.65;;
64188;SDS011;50493;50.970;10.082;2023-01-25T09:40:39;13.40;;;5.07;;
64188;SDS011;50493;50.970;10.082;2023-01-25T09:43:10;15.98;;;5.38;;
64188;SDS011;50493;50.970;10.082;2023-01-25T09:45:47;15.98;;;5.85;;
64188;SDS011;50493;50.970;10.082;2023-01-25T09:48:16;11.27;;;4.63;;
64188;SDS011;50493;50.970;10.082;2023-01-25T09:50:57;14.75;;;6.13;;
64188;SDS011;50493;50.970;10.082;2023-01-25T09:53:36;12.10;;;4.82;;
64188;SDS011;50493;50.970;10.082;2023-01-25T09:56:03;14.15;;;5.90;;
64188;SDS011;50493;50.970;10.082;2023-01-25T09:58:36;11.48;;;4.97;;
64188;SDS011;50493;50.970;10.082;2023-01-25T10:01:11;14.63;;;5.88;;
64188;SDS011;50493;50.970;10.082;2023-01-25T10:03:45;13.10;;;5.53;;
64188;SDS011;50493;50.970;10.082;2023-01-25T10:06:17;13.35;;;5.28;;
64188;SDS011;50493;50.970;10.082;2023-01-25T10:08:48;14.25;;;5.55;;
64188;SDS011;50493;50.970;10.082;2023-01-25T10:11:21;13.48;;;6.18;;
64188;SDS011;50493;50.970;10.082;2023-01-25T10:13:49;12.70;;;5.63;;
64188;SDS011;50493;50.970;10.082;2023-01-25T10:16:16;12.82;;;5.53;;
64188;SDS011;50493;50.970;10.082;2023-01-25T10:18:50;11.93;;;5.10;;
64188;SDS011;50493;50.970;10.082;2023-01-25T10:21:22;12.07;;;5.00;;
64188;SDS011;50493;50.970;10.082;2023-01-25T10:26:44;13.50;;;5.13;;
64188;SDS011;50493;50.970;10.082;2023-01-25T10:29:16;12.93;;;5.85;;
64188;SDS011;50493;50.970;10.082;2023-01-25T10:31:45;10.65;;;4.57;;
64188;SDS011;50493;50.970;10.082;2023-01-25T10:34:19;13.00;;;4.80;;
64188;SDS011;50493;50.970;10.082;2023-01-25T10:36:46;13.88;;;5.10;;
64188;SDS011;50493;50.970;10.082;2023-01-25T10:39:16;13.18;;;5.18;;
64188;SDS011;50493;50.970;10.082;2023-01-25T10:41:44;11.55;;;4.97;;
64188;SDS011;50493;50.970;10.082;2023-01-25T10:44:12;13.95;;;5.57;;
64188;SDS011;50493;50.970;10.082;2023-01-25T10:46:54;13.18;;;5.57;;
64188;SDS011;50493;50.970;10.082;2023-01-25T10:49:25;12.18;;;5.78;;
64188;SDS011;50493;50.970;10.082;2023-01-25T10:51:54;14.00;;;5.80;;
64188;SDS011;50493;50.970;10.082;2023-01-25T10:54:20;11.73;;;4.63;;
64188;SDS011;50493;50.970;10.082;2023-01-25T10:56:46;12.55;;;5.03;;
64188;SDS011;50493;50.970;10.082;2023-01-25T10:59:14;12.38;;;5.10;;
64188;SDS011;50493;50.970;10.082;2023-01-25T11:01:42;11.57;;;5.00;;
64188;SDS011;50493;50.970;10.082;2023-01-25T11:04:20;13.10;;;5.82;;
64188;SDS011;50493;50.970;10.082;2023-01-25T11:06:54;11.27;;;5.43;;
64188;SDS011;50493;50.970;10.082;2023-01-25T11:09:30;13.55;;;5.78;;
64188;SDS011;50493;50.970;10.082;2023-01-25T11:11:57;13.23;;;5.60;;
64188;SDS011;50493;50.970;10.082;2023-01-25T11:14:25;13.23;;;5.38;;
64188;SDS011;50493;50.970;10.082;2023-01-25T11:16:52;12.38;;;6.05;;
64188;SDS011;50493;50.970;10.082;2023-01-25T11:19:23;12.65;;;5.28;;
64188;SDS011;50493;50.970;10.082;2023-01-25T11:21:53;12.48;;;5.38;;
64188;SDS011;50493;50.970;10.082;2023-01-25T11:24:20;11.23;;;4.97;;
64188;SDS011;50493;50.970;10.082;2023-01-25T11:26:49;11.48;;;5.45;;
64188;SDS011;50493;50.970;10.082;2023-01-25T11:29:15;13.27;;;5.07;;
64188;SDS011;50493;50.970;10.082;2023-01-25T11:31:43;12.27;;;5.20;;
64188;SDS011;50493;50.970;10.082;2023-01-25T11:34:12;12.73;;;6.03;;
64188;SDS011;50493;50.970;10.082;2023-01-25T11:36:59;11.88;;;5.03;;
64188;SDS011;50493;50.970;10.082;2023-01-25T11:39:40;13.98;;;5.70;;
64188;SDS011;50493;50.970;10.082;2023-01-25T11:42:17;11.00;;;4.78;;
64188;SDS011;50493;50.970;10.082;2023-01-25T11:44:58;11.88;;;5.78;;
64188;SDS011;50493;50.970;10.082;2023-01-25T11:47:38;12.45;;;6.07;;
64188;SDS011;50493;50.970;10.082;2023-01-25T11:50:17;12.55;;;4.82;;
64188;SDS011;50493;50.970;10.082;2023-01-25T11:52:55;11.23;;;5.07;;
64188;SDS011;50493;50.970;10.082;2023-01-25T11:55:27;11.85;;;5.60;;
64188;SDS011;50493;50.970;10.082;2023-01-25T11:58:02;12.13;;;5.18;;
64188;SDS011;50493;50.970;10.082;2023-01-25T12:00:46;10.32;;;5.15;;
64188;SDS011;50493;50.970;10.082;2023-01-25T12:03:31;12.48;;;4.82;;
64188;SDS011;50493;50.970;10.082;2023-01-25T12:06:07;15.32;;;6.30;;
64188;SDS011;50493;50.970;10.082;2023-01-25T12:08:50;10.85;;;4.80;;
64188;SDS011;50493;50.970;10.082;2023-01-25T12:11:33;9.60;;;4.25;;
64188;SDS011;50493;50.970;10.082;2023-01-25T12:14:06;12.65;;;5.47;;
64188;SDS011;50493;50.970;10.082;2023-01-25T12:16:45;7.20;;;2.90;;
64188;SDS011;50493;50.970;10.082;2023-01-25T12:19:24;10.48;;;4.45;;
64188;SDS011;50493;50.970;10.082;2023-01-25T12:22:07;14.10;;;5.53;;
64188;SDS011;50493;50.970;10.082;2023-01-25T12:24:46;10.13;;;4.88;;
64188;SDS011;50493;50.970;10.082;2023-01-25T12:27:22;12.63;;;6.30;;
64188;SDS011;50493;50.970;10.082;2023-01-25T12:29:56;10.98;;;4.68;;
64188;SDS011;50493;50.970;10.082;2023-01-25T12:32:27;11.95;;;5.00;;
64188;SDS011;50493;50.970;10.082;2023-01-25T12:35:00;12.77;;;5.13;;
64188;SDS011;50493;50.970;10.082;2023-01-25T12:37:37;10.20;;;4.80;;
64188;SDS011;50493;50.970;10.082;2023-01-25T12:40:08;12.52;;;5.38;;
64188;SDS011;50493;50.970;10.082;2023-01-25T12:42:40;14.55;;;6.53;;
64188;SDS011;50493;50.970;10.082;2023-01-25T12:45:08;14.20;;;6.20;;
64188;SDS011;50493;50.970;10.082;2023-01-25T12:47:38;11.35;;;5.35;;
64188;SDS011;50493;50.970;10.082;2023-01-25T12:50:12;10.55;;;4.88;;
64188;SDS011;50493;50.970;10.082;2023-01-25T12:52:44;12.32;;;5.28;;
64188;SDS011;50493;50.970;10.082;2023-01-25T12:55:13;12.15;;;6.20;;
64188;SDS011;50493;50.970;10.082;2023-01-25T12:57:42;12.50;;;5.35;;
64188;SDS011;50493;50.970;10.082;2023-01-25T13:00:19;12.60;;;5.40;;
64188;SDS011;50493;50.970;10.082;2023-01-25T13:02:53;14.10;;;5.60;;
64188;SDS011;50493;50.970;10.082;2023-01-25T13:05:26;17.05;;;6.32;;
64188;SDS011;50493;50.970;10.082;2023-01-25T13:08:01;14.85;;;6.95;;
64188;SDS011;50493;50.970;10.082;2023-01-25T13:10:38;10.38;;;5.25;;
64188;SDS011;50493;50.970;10.082;2023-01-25T13:13:17;18.15;;;7.47;;
64188;SDS011;50493;50.970;10.082;2023-01-25T13:15:46;14.18;;;6.13;;
64188;SDS011;50493;50.970;10.082;2023-01-25T13:21:08;11.90;;;5.47;;
64188;SDS011;50493;50.970;10.082;2023-01-25T13:29:07;12.88;;;6.22;;
64188;SDS011;50493;50.970;10.082;2023-01-25T13:35:32;18.90;;;8.85;;
64188;SDS011;50493;50.970;10.082;2023-01-25T13:38:00;12.38;;;5.57;;
64188;SDS011;50493;50.970;10.082;2023-01-25T13:40:30;14.85;;;6.53;;
64188;SDS011;50493;50.970;10.082;2023-01-25T13:42:58;13.88;;;6.65;;
64188;SDS011;50493;50.970;10.082;2023-01-25T13:45:25;13.95;;;6.93;;
64188;SDS011;50493;50.970;10.082;2023-01-25T13:47:58;15.40;;;6.93;;
64188;SDS011;50493;50.970;10.082;2023-01-25T13:50:28;24.85;;;10.82;;
64188;SDS011;50493;50.970;10.082;2023-01-25T13:52:57;16.08;;;7.10;;
64188;SDS011;50493;50.970;10.082;2023-01-25T13:55:24;13.30;;;6.57;;
64188;SDS011;50493;50.970;10.082;2023-01-25T13:57:50;19.13;;;8.73;;
64188;SDS011;50493;50.970;10.082;2023-01-25T14:00:16;15.15;;;7.13;;
64188;SDS011;50493;50.970;10.082;2023-01-25T14:02:42;15.52;;;6.82;;
64188;SDS011;50493;50.970;10.082;2023-01-25T14:05:16;18.90;;;8.40;;
64188;SDS011;50493;50.970;10.082;2023-01-25T14:07:44;16.65;;;7.05;;
64188;SDS011;50493;50.970;10.082;2023-01-25T14:10:13;16.42;;;7.40;;
64188;SDS011;50493;50.970;10.082;2023-01-25T14:12:42;15.63;;;7.10;;
64188;SDS011;50493;50.970;10.082;2023-01-25T14:15:09;16.70;;;7.35;;
64188;SDS011;50493;50.970;10.082;2023-01-25T14:17:41;16.38;;;7.32;;
64188;SDS011;50493;50.970;10.082;2023-01-25T14:20:10;17.05;;;7.45;;
64188;SDS011;50493;50.970;10.082;2023-01-25T14:22:46;15.82;;;7.35;;
64188;SDS011;50493;50.970;10.082;2023-01-25T14:25:14;16.40;;;7.40;;
64188;SDS011;50493;50.970;10.082;2023-01-25T14:27:41;17.25;;;7.68;;
64188;SDS011;50493;50.970;10.082;2023-01-25T14:30:13;15.40;;;7.07;;
64188;SDS011;50493;50.970;10.082;2023-01-25T14:32:41;25.02;;;9.80;;
64188;SDS011;50493;50.970;10.082;2023-01-25T14:35:23;18.45;;;8.20;;
64188;SDS011;50493;50.970;10.082;2023-01-25T14:38:02;16.20;;;6.80;;
64188;SDS011;50493;50.970;10.082;2023-01-25T14:40:27;16.55;;;7.70;;
64188;SDS011;50493;50.970;10.082;2023-01-25T14:42:55;15.45;;;7.07;;
64188;SDS011;50493;50.970;10.082;2023-01-25T14:45:22;16.27;;;6.97;;